TNCM/SXM METAR and TAF weather

Enter ICAO airport designator
Station Type Date Time Source
TNCM METAR 2019/06/19 01:00 UTC NOAA

TNCM 190100Z 06011KT 9999 SCT018 28/24 Q1019 A3011 NOSIG RMK LGT HZ ALQDS


Station Type Date Time Source
TNCM Decoded METAR 2019/06/19 01:00 UTC NOAA

Juliana Airport, Saint Maarten, Netherlands Antilles (TNCM) 18-03N 063-07W 9M
Jun 18, 2019 - 09:00 PM EDT / 2019.06.19 0100 UTC
Wind: from the ENE (060 degrees) at 13 MPH (11 KT):0
Visibility: greater than 7 mile(s):0
Sky conditions: partly cloudy
Temperature: 82 F (28 C)
Dew Point: 75 F (24 C)
Relative Humidity: 78%
Pressure (altimeter): 30.11 in. Hg (1019 hPa)
ob: TNCM 190100Z 06011KT 9999 SCT018 28/24 Q1019 A3011 NOSIG RMK LGT HZ ALQDS
cycle: 1

Station Type Date Time Source
TNCM TAF 2019/06/18 21:09 UTC NOAA

TAF TNCM 182104Z 1821/1918 07012KT P6SM SCT018
FM190400 08009KT P6SM VCSH FEW018 SCT025
FM191400 10015KT P6SM SCT024

Example: see airport list